LJLJLJPZ

Guest
Details From LJLJ - LJUBLJANA
To LJPZ - PORTOROZ
Flight Number -
Tags generated
Created
Modified
Stats Distance 57 nm / 106 km
Max Altitude 2,600 ft / 792 m
Waypoints 3
Social Downloads 0
Likes 0
Share VATSIM

Download

Looking for another format? Having issues loading an existing format? Contact us
Advertisement - Login to hide

Notes

Basic altitude profile: - Ascent Rate: 2500ft/min - Ascent Speed: 250kts - Cruise Altitude: 35000ft - Cruise Speed: 420kts - Descent Rate: 1500ft/min - Descent Speed: 250kts Options: - Use NATs: yes - Use PACOTS: yes - Use low airways: no - Use high airways: yes

Route

LJLJ REBRO LJPZ

ID Type Via Altitude (ft/m) Position (lat/lon) Dist (leg/tot) Name
O LJLJ APT - 0 / 0 46.22368 / 14.45761 - / 0 nm LJUBLJANA
REBRO FIX - 2,600 / 792 46.11284 / 14.37304 7 / 7 nm
O LJPZ APT - 0 / 0 45.47244 / 13.61568 49 / 57 nm PORTOROZ

Altitude Profile

Advertisement - Login to hide

LJLJ

Details ICAO LJLJ (LJU)
Name Ljubljana Joze Pucnik Int'l
Region Slovenia
Timezone Europe/Ljubljana (UTC+1.0)
Stats Elevation 1,271 ft / 387 m (AMSL)
Location 46.223700° 14.457600°
Runways 1
Magnetic Variation 3.777° E

METAR

LJLJ 161730Z 27003KT CAVOK M02/M04 Q1017 NOSIG

Decode

TAF

TAF LJLJ 161400Z 1615/1715 29003KT CAVOK BECMG 1710/1711 10004KT TEMPO 1706/1714 BKN065 BKN150

Decode

Departure Runways

ID Width Length Bearing (true/mag) Surface Threshold Overrun Markings Lighting
12 148 ft / 45 m 10,838 ft / 3,303 m 126.47° / 122.70° ASPHALT 0 ft / 0 m 0 ft / 0 m APP CENTERLINE EDGE THRESHOLD SALS REIL-OMNI
30 148 ft / 45 m 10,838 ft / 3,303 m 306.50° / 302.72° ASPHALT 0 ft / 0 m 0 ft / 0 m PREC-APP CENTERLINE EDGE THRESHOLD CALVERT-ILS TDZ REIL-OMNI

LJPZ

Details ICAO LJPZ (POW)
Name PORTOROZ
Region Slovenia
Timezone Europe/Ljubljana (UTC+1.0)
Stats Elevation 7 ft / 2 m (AMSL)
Location 45.472400° 13.615700°
Runways 1
Magnetic Variation 3.557° E

METAR

LJPZ 161730Z 11002KT 9999 FEW033 SCT050 BKN220 05/M02 Q1018

Decode

TAF

Not found

Destination Runways

ID Width Length Bearing (true/mag) Surface Threshold Overrun Markings Lighting
15 98 ft / 30 m 3,939 ft / 1,201 m 151.28° / 147.73° ASPHALT 0 ft / 0 m 0 ft / 0 m APP EDGE THRESHOLD MALS
33 98 ft / 30 m 3,939 ft / 1,201 m 331.29° / 327.73° ASPHALT 751 ft / 229 m 0 ft / 0 m APP EDGE THRESHOLD

Popular Alternatives